createdAt,value
2023-10-07T00:01:38.994Z,2.03
2023-10-07T00:04:11.660Z,1.52
2023-10-07T00:06:39.386Z,1.88
2023-10-07T00:09:11.707Z,1.55
2023-10-07T00:11:38.636Z,1.73
2023-10-07T00:14:11.007Z,2.00
2023-10-07T00:16:39.528Z,1.67
2023-10-07T00:19:08.456Z,2.10
2023-10-07T00:21:55.615Z,2.20
2023-10-07T00:24:23.327Z,1.70
2023-10-07T00:26:51.464Z,2.22
2023-10-07T00:29:22.665Z,1.65
2023-10-07T00:31:53.834Z,3.05
2023-10-07T00:34:27.992Z,1.73
2023-10-07T00:36:59.411Z,1.60
2023-10-07T00:39:32.863Z,1.85
2023-10-07T00:42:00.437Z,1.92
2023-10-07T00:44:34.239Z,1.67
2023-10-07T00:47:05.107Z,2.55
2023-10-07T00:49:44.275Z,1.27
2023-10-07T00:52:29.332Z,1.75
2023-10-07T00:55:05.446Z,1.48
2023-10-07T00:57:48.917Z,2.00
2023-10-07T01:00:28.276Z,1.60
2023-10-07T01:03:08.604Z,1.63
2023-10-07T01:05:37.131Z,1.23
2023-10-07T01:08:07.460Z,1.83
2023-10-07T01:10:40.029Z,2.08
2023-10-07T01:13:25.646Z,1.42
2023-10-07T01:15:54.849Z,1.40
2023-10-07T01:18:23.179Z,2.65
2023-10-07T01:20:53.013Z,2.15
2023-10-07T01:23:35.062Z,1.67
2023-10-07T01:26:03.905Z,1.52
2023-10-07T01:28:34.001Z,1.80
2023-10-07T01:31:20.450Z,1.90
2023-10-07T01:33:49.141Z,2.17
2023-10-07T01:36:17.788Z,2.17
2023-10-07T01:38:54.349Z,2.65
2023-10-07T01:41:22.667Z,1.77
2023-10-07T01:44:07.401Z,2.20
2023-10-07T01:46:36.526Z,1.52
2023-10-07T01:49:13.926Z,1.33
2023-10-07T01:51:47.400Z,1.50
2023-10-07T01:54:15.064Z,1.55
2023-10-07T01:56:41.902Z,1.88
2023-10-07T01:59:19.233Z,2.00
2023-10-07T02:02:07.420Z,1.95
2023-10-07T02:04:35.554Z,1.63
2023-10-07T02:07:03.492Z,1.70
2023-10-07T02:09:36.285Z,1.45
2023-10-07T02:12:09.552Z,1.85
2023-10-07T02:14:37.343Z,1.80
2023-10-07T02:17:16.061Z,1.92
2023-10-07T02:19:45.076Z,2.25
2023-10-07T02:22:23.196Z,1.45
2023-10-07T02:25:01.517Z,1.60
2023-10-07T02:27:30.098Z,1.50
2023-10-07T02:30:02.858Z,1.80
2023-10-07T02:32:33.087Z,1.80
2023-10-07T02:35:02.085Z,1.58
2023-10-07T02:37:32.489Z,2.03
2023-10-07T02:40:20.517Z,1.65
2023-10-07T02:42:51.344Z,1.52
2023-10-07T02:45:18.516Z,1.30
2023-10-07T02:47:49.309Z,1.77
2023-10-07T02:50:18.214Z,1.45
2023-10-07T02:52:48.241Z,1.95
2023-10-07T02:55:31.496Z,1.98
2023-10-07T02:57:58.381Z,1.83
2023-10-07T03:00:53.116Z,1.50
2023-10-07T03:03:26.817Z,1.50
2023-10-07T03:06:00.220Z,1.48
2023-10-07T03:08:47.945Z,1.33
2023-10-07T03:11:23.266Z,1.95
2023-10-07T03:13:59.647Z,1.52
2023-10-07T03:16:26.845Z,1.65
2023-10-07T03:18:59.579Z,1.20
2023-10-07T03:21:43.221Z,1.83
2023-10-07T03:24:15.638Z,1.33
2023-10-07T03:26:45.768Z,1.50
2023-10-07T03:29:30.780Z,1.98
2023-10-07T03:32:04.180Z,2.35
2023-10-07T03:34:31.020Z,2.15
2023-10-07T03:37:18.306Z,1.70
2023-10-07T03:40:06.367Z,1.83
2023-10-07T03:42:34.730Z,1.40
2023-10-07T03:45:01.988Z,1.73
2023-10-07T03:47:34.151Z,1.40
2023-10-07T03:50:01.357Z,1.63
2023-10-07T03:52:29.573Z,1.70
2023-10-07T03:55:02.840Z,1.70
2023-10-07T03:57:29.639Z,1.55
2023-10-07T03:59:57.718Z,1.20
2023-10-07T04:02:39.319Z,1.33
2023-10-07T04:05:14.218Z,1.38
2023-10-07T04:07:45.824Z,1.77
2023-10-07T04:10:33.192Z,1.77
2023-10-07T04:13:01.221Z,1.75
2023-10-07T04:15:31.677Z,2.20
2023-10-07T04:18:01.082Z,1.35
2023-10-07T04:20:48.282Z,1.77
2023-10-07T04:23:22.282Z,1.20
2023-10-07T04:25:49.471Z,1.65
2023-10-07T04:28:16.639Z,1.38
2023-10-07T04:30:49.182Z,2.45
2023-10-07T04:33:19.425Z,1.23
2023-10-07T04:35:51.439Z,1.27
2023-10-07T04:38:41.325Z,2.25
2023-10-07T04:41:23.136Z,2.00
2023-10-07T04:43:54.344Z,2.22
2023-10-07T04:46:25.486Z,1.60
2023-10-07T04:49:14.550Z,1.77
2023-10-07T04:51:48.097Z,1.90
2023-10-07T04:54:21.828Z,1.85
2023-10-07T04:56:56.945Z,2.08
2023-10-07T04:59:28.240Z,1.83
2023-10-07T05:02:04.596Z,2.83
2023-10-07T05:04:36.344Z,1.85
2023-10-07T05:07:05.732Z,1.67
2023-10-07T05:09:33.920Z,2.38
2023-10-07T05:12:02.702Z,1.75
2023-10-07T05:14:29.622Z,1.65
2023-10-07T05:17:00.191Z,2.30
2023-10-07T05:19:29.030Z,1.75
2023-10-07T05:22:06.166Z,1.90
2023-10-07T05:24:34.255Z,3.10
2023-10-07T05:27:01.881Z,3.13
2023-10-07T05:29:31.955Z,2.10
2023-10-07T05:32:02.776Z,2.00
2023-10-07T05:34:30.645Z,2.20
2023-10-07T05:37:12.427Z,1.80
2023-10-07T05:39:42.850Z,1.75
2023-10-07T05:42:13.012Z,2.33
2023-10-07T05:44:42.863Z,1.50
2023-10-07T05:47:11.561Z,2.15
2023-10-07T05:49:39.313Z,2.55
2023-10-07T05:52:10.238Z,2.00
2023-10-07T05:54:37.282Z,2.40
2023-10-07T05:57:08.585Z,2.67
2023-10-07T05:59:36.272Z,2.05
2023-10-07T06:02:14.464Z,1.90
2023-10-07T06:04:45.541Z,1.45
2023-10-07T06:07:16.364Z,2.30
2023-10-07T06:09:45.671Z,2.25
2023-10-07T06:12:13.395Z,2.13
2023-10-07T06:14:40.936Z,1.73
2023-10-07T06:17:08.194Z,2.30
2023-10-07T06:19:37.586Z,1.92
2023-10-07T06:22:13.763Z,2.28
2023-10-07T06:24:42.312Z,1.98
2023-10-07T06:27:13.439Z,1.52
2023-10-07T06:29:47.008Z,1.85
2023-10-07T06:32:24.099Z,3.00
2023-10-07T06:35:00.872Z,1.73
2023-10-07T06:37:31.447Z,3.28
2023-10-07T06:40:02.357Z,2.40
2023-10-07T06:42:30.820Z,2.33
2023-10-07T06:44:57.989Z,1.98
2023-10-07T06:47:30.826Z,2.03
2023-10-07T06:50:00.033Z,2.75
2023-10-07T06:52:27.615Z,2.78
2023-10-07T06:55:07.209Z,2.50
2023-10-07T06:57:35.737Z,2.60
2023-10-07T07:00:10.317Z,3.03
2023-10-07T07:02:37.606Z,2.25
2023-10-07T07:05:13.359Z,2.38
2023-10-07T07:07:40.421Z,2.05
2023-10-07T07:10:10.933Z,1.75
2023-10-07T07:12:39.528Z,2.22
2023-10-07T07:15:07.084Z,2.22
2023-10-07T07:17:37.657Z,2.20
2023-10-07T07:20:13.285Z,1.63
2023-10-07T07:25:24.403Z,2.13
2023-10-07T07:27:55.701Z,2.85
2023-10-07T07:30:32.171Z,2.25
2023-10-07T07:33:01.644Z,2.13
2023-10-07T07:35:45.261Z,2.30
2023-10-07T07:38:33.863Z,2.13
2023-10-07T07:41:07.803Z,2.08
2023-10-07T07:43:40.955Z,2.90
2023-10-07T07:46:18.925Z,3.42
2023-10-07T07:48:48.463Z,2.97
2023-10-07T07:51:18.419Z,2.75
2023-10-07T07:53:45.887Z,2.63
2023-10-07T07:56:15.878Z,2.92
2023-10-07T07:58:50.112Z,3.50
2023-10-07T08:01:41.955Z,2.15
2023-10-07T08:04:20.293Z,3.20
2023-10-07T08:06:50.868Z,2.78
2023-10-07T08:09:20.923Z,4.45
2023-10-07T08:11:48.640Z,4.05
2023-10-07T08:14:18.932Z,4.53
2023-10-07T08:16:52.270Z,4.07
2023-10-07T08:19:21.687Z,7.30
2023-10-07T08:21:53.361Z,9.98
2023-10-07T08:24:23.555Z,5.10
2023-10-07T08:26:57.341Z,4.18
2023-10-07T08:29:37.794Z,4.53
2023-10-07T08:32:36.595Z,5.22
2023-10-07T08:35:18.250Z,3.85
2023-10-07T08:37:51.518Z,6.05
2023-10-07T08:40:41.305Z,5.68
2023-10-07T08:43:15.911Z,6.72
2023-10-07T08:45:43.337Z,5.53
2023-10-07T08:48:10.850Z,4.00
2023-10-07T08:50:56.927Z,2.80
2023-10-07T08:53:30.083Z,4.85
2023-10-07T08:56:01.961Z,3.53
2023-10-07T08:58:32.307Z,4.07
2023-10-07T09:01:00.279Z,2.83
2023-10-07T09:03:30.669Z,4.53
2023-10-07T09:06:07.639Z,3.15
2023-10-07T09:08:36.297Z,3.17
2023-10-07T09:11:10.867Z,3.58
2023-10-07T09:13:40.138Z,2.53
2023-10-07T09:16:11.678Z,3.25
2023-10-07T09:18:42.999Z,2.00
2023-10-07T09:21:33.719Z,3.80
2023-10-07T09:24:02.771Z,2.03
2023-10-07T09:26:35.683Z,3.15
2023-10-07T09:29:24.086Z,3.40
2023-10-07T09:32:30.177Z,2.50
2023-10-07T09:35:00.602Z,3.17
2023-10-07T09:37:33.609Z,2.58
2023-10-07T09:40:40.828Z,4.05
2023-10-07T09:43:21.399Z,3.88
2023-10-07T09:45:53.954Z,2.83
2023-10-07T09:48:25.257Z,2.67
2023-10-07T09:50:57.354Z,2.80
2023-10-07T09:53:48.246Z,3.40
2023-10-07T09:57:08.204Z,2.13
2023-10-07T10:00:00.099Z,1.70
2023-10-07T10:02:53.266Z,2.37
2023-10-07T10:05:27.621Z,3.17
2023-10-07T10:08:40.542Z,2.58
2023-10-07T10:11:24.318Z,2.35
2023-10-07T10:13:52.160Z,2.50
2023-10-07T10:16:48.046Z,3.13
2023-10-07T10:19:38.678Z,2.42
2023-10-07T10:22:13.963Z,3.00
2023-10-07T10:24:45.587Z,1.90
2023-10-07T10:27:18.916Z,2.97
2023-10-07T10:30:08.766Z,2.10
2023-10-07T10:32:38.310Z,3.22
2023-10-07T10:35:08.288Z,2.80
2023-10-07T10:37:39.926Z,2.35
2023-10-07T10:40:21.011Z,2.30
2023-10-07T10:42:49.736Z,2.67
2023-10-07T10:45:32.104Z,3.78
2023-10-07T10:48:00.705Z,2.63
2023-10-07T10:50:31.078Z,1.95
2023-10-07T10:53:01.997Z,2.17
2023-10-07T10:55:36.743Z,2.38
2023-10-07T10:58:13.920Z,2.92
2023-10-07T11:00:52.591Z,2.75
2023-10-07T11:03:25.124Z,2.42
2023-10-07T11:05:58.982Z,3.53
2023-10-07T11:08:29.836Z,2.72
2023-10-07T11:11:18.832Z,3.10
2023-10-07T11:13:54.844Z,2.25
2023-10-07T11:16:31.913Z,2.50
2023-10-07T11:19:10.067Z,3.20
2023-10-07T11:21:46.008Z,3.00
2023-10-07T11:24:29.796Z,3.47
2023-10-07T11:26:58.432Z,2.70
2023-10-07T11:29:31.261Z,3.28
2023-10-07T11:32:09.534Z,3.38
2023-10-07T11:34:48.784Z,2.55
2023-10-07T11:37:21.230Z,2.72
2023-10-07T11:39:49.377Z,3.28
2023-10-07T11:42:25.504Z,2.30
2023-10-07T11:44:58.273Z,3.22
2023-10-07T11:47:27.922Z,3.63
2023-10-07T11:49:56.734Z,2.95
2023-10-07T11:52:25.341Z,3.20
2023-10-07T11:54:52.701Z,3.00
2023-10-07T11:57:20.289Z,2.72
2023-10-07T11:59:47.423Z,2.30
2023-10-07T12:02:16.941Z,2.35
2023-10-07T12:04:49.437Z,2.97
2023-10-07T12:07:18.144Z,3.08
2023-10-07T12:09:48.419Z,3.10
2023-10-07T12:12:16.679Z,3.72
2023-10-07T12:14:44.442Z,2.92
2023-10-07T12:17:12.809Z,6.70
2023-10-07T12:19:42.794Z,5.57
2023-10-07T12:22:10.146Z,3.30
2023-10-07T12:24:38.590Z,2.83
2023-10-07T12:27:10.822Z,3.40
2023-10-07T12:29:37.769Z,3.95
2023-10-07T12:32:21.895Z,4.75
2023-10-07T12:34:49.063Z,3.42
2023-10-07T12:37:16.611Z,3.38
2023-10-07T12:39:46.338Z,3.25
2023-10-07T12:42:14.086Z,3.30
2023-10-07T12:44:41.715Z,4.07
2023-10-07T12:47:10.329Z,3.17
2023-10-07T12:49:41.946Z,2.83
2023-10-07T12:52:08.751Z,2.92
2023-10-07T12:54:37.094Z,3.97
2023-10-07T12:57:05.287Z,4.30
2023-10-07T12:59:37.452Z,3.67
2023-10-07T13:02:06.504Z,3.75
2023-10-07T13:04:36.451Z,4.00
2023-10-07T13:07:05.176Z,3.22
2023-10-07T13:09:32.600Z,3.70
2023-10-07T13:12:00.761Z,3.38
2023-10-07T13:14:28.555Z,3.25
2023-10-07T13:17:03.208Z,4.10
2023-10-07T13:19:37.234Z,3.15
2023-10-07T13:22:06.780Z,3.50
2023-10-07T13:24:34.441Z,3.05
2023-10-07T13:27:03.527Z,3.55
2023-10-07T13:29:36.198Z,3.50
2023-10-07T13:32:07.284Z,2.65
2023-10-07T13:34:41.603Z,2.72
2023-10-07T13:37:13.103Z,3.40
2023-10-07T13:39:41.905Z,3.92
2023-10-07T13:42:10.990Z,3.90
2023-10-07T13:44:38.138Z,3.60
2023-10-07T13:47:09.077Z,3.63
2023-10-07T13:49:39.426Z,3.53
2023-10-07T13:52:10.301Z,3.63
2023-10-07T13:54:40.473Z,3.97
2023-10-07T13:57:20.632Z,4.30
2023-10-07T13:59:47.747Z,2.97
2023-10-07T14:02:21.215Z,4.18
2023-10-07T14:04:49.533Z,4.30
2023-10-07T14:07:16.617Z,3.88
2023-10-07T14:09:50.216Z,4.22
2023-10-07T14:12:17.908Z,3.63
2023-10-07T14:14:53.970Z,3.92
2023-10-07T14:17:22.901Z,3.95
2023-10-07T14:19:50.301Z,3.95
2023-10-07T14:22:18.778Z,5.10
2023-10-07T14:24:45.985Z,4.30
2023-10-07T14:27:12.787Z,4.50
2023-10-07T14:29:39.779Z,3.63
2023-10-07T14:32:10.826Z,4.60
2023-10-07T14:34:38.794Z,4.38
2023-10-07T14:37:06.430Z,4.07
2023-10-07T14:39:44.274Z,4.00
2023-10-07T14:42:21.216Z,3.95
2023-10-07T14:44:49.868Z,4.18
2023-10-07T14:47:17.108Z,3.00
2023-10-07T14:49:45.534Z,3.85
2023-10-07T14:52:13.106Z,4.35
2023-10-07T14:54:40.258Z,4.05
2023-10-07T14:57:07.138Z,4.68
2023-10-07T14:59:37.271Z,4.57
2023-10-07T15:02:04.250Z,4.53
2023-10-07T15:04:31.387Z,5.05
2023-10-07T15:06:58.433Z,4.80
2023-10-07T15:09:25.443Z,5.10
2023-10-07T15:11:57.995Z,5.32
2023-10-07T15:14:28.544Z,5.97
2023-10-07T15:16:56.647Z,5.22
2023-10-07T15:19:24.752Z,5.10
2023-10-07T15:21:53.577Z,4.85
2023-10-07T15:24:21.213Z,5.10
2023-10-07T15:26:49.410Z,5.03
2023-10-07T15:29:27.321Z,4.00
2023-10-07T15:31:54.336Z,5.22
2023-10-07T15:34:21.238Z,5.80
2023-10-07T15:36:51.487Z,6.32
2023-10-07T15:39:20.711Z,6.95
2023-10-07T15:41:47.718Z,6.50
2023-10-07T15:44:14.744Z,5.13
2023-10-07T15:46:41.707Z,4.15
2023-10-07T15:49:12.529Z,4.97
2023-10-07T15:51:40.823Z,4.65
2023-10-07T15:54:11.256Z,4.95
2023-10-07T15:56:41.837Z,4.90
2023-10-07T15:59:09.974Z,4.20
2023-10-07T16:01:44.708Z,4.22
2023-10-07T16:04:13.254Z,5.45
2023-10-07T16:06:43.708Z,5.45
2023-10-07T16:09:15.863Z,6.43
2023-10-07T16:11:45.028Z,6.38
2023-10-07T16:14:13.936Z,5.53
2023-10-07T16:16:42.413Z,5.28
2023-10-07T16:19:12.666Z,5.05
2023-10-07T16:21:42.236Z,3.88
2023-10-07T16:24:14.308Z,3.72
2023-10-07T16:26:42.636Z,3.72
2023-10-07T16:29:13.335Z,4.30
2023-10-07T16:31:40.689Z,4.80
2023-10-07T16:34:07.998Z,4.68
2023-10-07T16:36:34.847Z,4.25
2023-10-07T16:39:05.457Z,5.50
2023-10-07T16:41:34.332Z,4.05
2023-10-07T16:44:04.613Z,4.45
2023-10-07T16:46:32.241Z,5.80
2023-10-07T16:49:01.138Z,3.95
2023-10-07T16:51:30.446Z,3.60
2023-10-07T16:53:57.361Z,3.83
2023-10-07T16:56:24.418Z,3.03
2023-10-07T16:58:51.343Z,3.30
2023-10-07T17:01:18.257Z,3.88
2023-10-07T17:03:46.822Z,3.75
2023-10-07T17:06:14.491Z,3.42
2023-10-07T17:08:41.984Z,3.38
2023-10-07T17:11:14.374Z,4.03
2023-10-07T17:13:42.244Z,3.70
2023-10-07T17:16:09.637Z,2.80
2023-10-07T17:18:37.375Z,2.70
2023-10-07T17:21:10.337Z,3.03
2023-10-07T17:23:37.160Z,2.70
2023-10-07T17:26:07.437Z,2.40
2023-10-07T17:28:34.963Z,3.58
2023-10-07T17:31:01.963Z,4.38
2023-10-07T17:33:29.978Z,3.97
2023-10-07T17:35:56.854Z,4.45
2023-10-07T17:38:24.005Z,4.22
2023-10-07T17:40:51.988Z,5.35
2023-10-07T17:43:19.148Z,5.80
2023-10-07T17:45:46.014Z,6.10
2023-10-07T17:48:12.994Z,4.40
2023-10-07T17:50:41.717Z,5.10
2023-10-07T17:53:10.892Z,4.47
2023-10-07T17:55:40.987Z,3.80
2023-10-07T17:58:10.894Z,4.88
2023-10-07T18:00:37.689Z,5.82
2023-10-07T18:03:08.989Z,6.20
2023-10-07T18:05:36.063Z,4.07
2023-10-07T18:08:04.607Z,4.43
2023-10-07T18:10:31.506Z,4.38
2023-10-07T18:12:58.353Z,3.65
2023-10-07T18:15:25.425Z,3.58
2023-10-07T18:17:55.114Z,4.20
2023-10-07T18:20:24.213Z,4.78
2023-10-07T18:22:51.864Z,4.85
2023-10-07T18:25:23.224Z,4.13
2023-10-07T18:27:51.416Z,4.15
2023-10-07T18:30:21.205Z,3.03
2023-10-07T18:32:49.336Z,3.00
2023-10-07T18:35:16.676Z,3.30
2023-10-07T18:37:43.585Z,3.05
2023-10-07T18:40:10.891Z,4.65
2023-10-07T18:42:38.232Z,3.05
2023-10-07T18:45:06.514Z,4.03
2023-10-07T18:47:33.905Z,3.50
2023-10-07T18:50:01.444Z,3.17
2023-10-07T18:52:29.846Z,3.20
2023-10-07T18:54:57.323Z,2.90
2023-10-07T18:57:24.304Z,2.53
2023-10-07T18:59:51.453Z,2.90
2023-10-07T19:02:21.870Z,3.38
2023-10-07T19:04:50.021Z,2.88
2023-10-07T19:07:18.414Z,3.13
2023-10-07T19:09:46.849Z,2.50
2023-10-07T19:12:13.831Z,3.22
2023-10-07T19:14:40.809Z,2.65
2023-10-07T19:17:07.688Z,3.08
2023-10-07T19:19:35.153Z,2.63
2023-10-07T19:22:02.824Z,2.47
2023-10-07T19:24:33.444Z,3.03
2023-10-07T19:27:04.132Z,2.40
2023-10-07T19:29:31.538Z,3.53
2023-10-07T19:32:02.472Z,2.65
2023-10-07T19:34:29.330Z,2.63
2023-10-07T19:36:56.453Z,2.88
2023-10-07T19:39:39.703Z,3.03
2023-10-07T19:42:09.128Z,3.15
2023-10-07T19:44:38.802Z,3.38
2023-10-07T19:47:06.840Z,3.10
2023-10-07T19:49:36.286Z,3.03
2023-10-07T19:52:14.865Z,2.55
2023-10-07T19:54:41.990Z,2.55
2023-10-07T19:57:13.079Z,3.03
2023-10-07T19:59:42.649Z,3.08
2023-10-07T20:02:11.048Z,2.60
2023-10-07T20:04:42.878Z,3.42
2023-10-07T20:07:11.620Z,3.10
2023-10-07T20:09:38.412Z,2.88
2023-10-07T20:12:05.924Z,2.33
2023-10-07T20:14:35.825Z,2.65
2023-10-07T20:17:03.415Z,2.85
2023-10-07T20:19:33.624Z,3.35
2023-10-07T20:22:02.423Z,2.97
2023-10-07T20:24:29.308Z,3.30
2023-10-07T20:26:58.254Z,3.15
2023-10-07T20:29:28.267Z,2.60
2023-10-07T20:31:56.578Z,2.83
2023-10-07T20:34:24.505Z,3.17
2023-10-07T20:36:51.337Z,3.58
2023-10-07T20:39:22.304Z,2.90
2023-10-07T20:41:49.262Z,2.80
2023-10-07T20:44:17.718Z,3.28
2023-10-07T20:46:46.059Z,3.63
2023-10-07T20:49:15.585Z,2.30
2023-10-07T20:51:45.510Z,3.08
2023-10-07T20:54:34.734Z,2.50
2023-10-07T20:57:14.512Z,2.65
2023-10-07T20:59:41.613Z,2.35
2023-10-07T21:02:09.841Z,3.17
2023-10-07T21:04:37.783Z,2.70
2023-10-07T21:07:05.054Z,2.72
2023-10-07T21:09:32.408Z,2.70
2023-10-07T21:12:01.065Z,2.90
2023-10-07T21:14:33.370Z,3.00
2023-10-07T21:17:02.660Z,2.65
2023-10-07T21:19:29.662Z,3.17
2023-10-07T21:21:56.591Z,3.38
2023-10-07T21:24:24.928Z,2.70
2023-10-07T21:26:53.025Z,3.30
2023-10-07T21:29:22.910Z,2.78
2023-10-07T21:31:52.166Z,2.90
2023-10-07T21:34:20.842Z,3.15
2023-10-07T21:36:48.928Z,3.03
2023-10-07T21:39:18.213Z,2.70
2023-10-07T21:41:46.557Z,2.50
2023-10-07T21:44:14.815Z,3.13
2023-10-07T21:46:41.704Z,3.20
2023-10-07T21:49:08.640Z,3.08
2023-10-07T21:51:35.390Z,2.55
2023-10-07T21:54:07.102Z,3.03
2023-10-07T21:56:34.128Z,3.10
2023-10-07T21:59:03.386Z,2.78
2023-10-07T22:01:32.656Z,2.53
2023-10-07T22:03:59.808Z,3.08
2023-10-07T22:06:26.761Z,3.15
2023-10-07T22:08:55.439Z,3.53
2023-10-07T22:11:22.610Z,3.00
2023-10-07T22:13:49.895Z,2.95
2023-10-07T22:16:18.340Z,2.63
2023-10-07T22:18:46.806Z,2.97
2023-10-07T22:21:13.692Z,2.67
2023-10-07T22:23:40.834Z,2.78
2023-10-07T22:26:12.624Z,2.78
2023-10-07T22:28:40.029Z,2.70
2023-10-07T22:31:08.251Z,2.38
2023-10-07T22:33:36.484Z,3.08
2023-10-07T22:36:13.695Z,3.20
2023-10-07T22:38:41.599Z,3.65
2023-10-07T22:41:19.335Z,2.70
2023-10-07T22:43:46.909Z,2.67
2023-10-07T22:46:22.103Z,2.30
2023-10-07T22:48:50.244Z,2.47
2023-10-07T22:51:23.891Z,2.92
2023-10-07T22:53:53.432Z,2.85
2023-10-07T22:56:26.254Z,2.90
2023-10-07T22:58:55.094Z,2.63
2023-10-07T23:01:37.547Z,2.45
2023-10-07T23:07:14.099Z,2.33
2023-10-07T23:09:50.210Z,2.55
2023-10-07T23:12:31.158Z,2.70
2023-10-07T23:14:59.980Z,2.40
2023-10-07T23:17:32.401Z,2.88
2023-10-07T23:22:57.815Z,2.83
2023-10-07T23:25:32.904Z,2.47
2023-10-07T23:28:06.988Z,2.28
2023-10-07T23:30:35.928Z,2.35
2023-10-07T23:33:04.950Z,2.70
2023-10-07T23:35:41.765Z,2.72
2023-10-07T23:38:20.277Z,2.13
2023-10-07T23:40:53.280Z,1.95
2023-10-07T23:43:21.371Z,2.22
2023-10-07T23:45:52.551Z,2.42
2023-10-07T23:48:24.230Z,2.80
2023-10-07T23:50:58.769Z,2.42
2023-10-07T23:53:31.385Z,2.90
2023-10-07T23:58:46.525Z,3.80
